createdAt,value
2023-03-10T00:00:06.979Z,61.44
2023-03-10T00:00:18.015Z,61.44
2023-03-10T00:00:28.998Z,61.44
2023-03-10T00:00:39.759Z,61.44
2023-03-10T00:00:50.835Z,61.44
2023-03-10T00:01:01.792Z,61.44
2023-03-10T00:01:12.589Z,61.35
2023-03-10T00:01:23.628Z,61.44
2023-03-10T00:01:34.606Z,61.44
2023-03-10T00:01:45.390Z,61.44
2023-03-10T00:01:55.999Z,61.44
2023-03-10T00:02:07.000Z,61.55
2023-03-10T00:02:17.762Z,61.42
2023-03-10T00:02:28.810Z,61.55
2023-03-10T00:02:39.770Z,61.55
2023-03-10T00:02:50.558Z,61.55
2023-03-10T00:03:01.605Z,61.55
2023-03-10T00:03:12.575Z,61.65
2023-03-10T00:03:23.332Z,61.65
2023-03-10T00:03:34.375Z,61.55
2023-03-10T00:03:45.435Z,61.55
2023-03-10T00:03:56.140Z,61.52
2023-03-10T00:04:07.309Z,61.52
2023-03-10T00:04:18.360Z,61.52
2023-03-10T00:04:29.121Z,61.42
2023-03-10T00:04:40.308Z,61.42
2023-03-10T00:04:50.775Z,61.32
2023-03-10T00:05:01.509Z,61.35
2023-03-10T00:05:12.554Z,61.24
2023-03-10T00:05:23.642Z,61.21
2023-03-10T00:05:34.464Z,61.11
2023-03-10T00:05:44.973Z,61.11
2023-03-10T00:05:56.026Z,61.14
2023-03-10T00:06:06.785Z,61.11
2023-03-10T00:06:17.849Z,61.11
2023-03-10T00:06:28.807Z,61.11
2023-03-10T00:06:39.580Z,61.11
2023-03-10T00:06:50.650Z,61.21
2023-03-10T00:07:01.592Z,61.11
2023-03-10T00:07:12.391Z,61.21
2023-03-10T00:07:23.419Z,61.21
2023-03-10T00:07:34.448Z,61.21
2023-03-10T00:07:45.366Z,61.11
2023-03-10T00:07:55.857Z,61.11
2023-03-10T00:08:06.827Z,61.11
2023-03-10T00:08:17.605Z,61.11
2023-03-10T00:08:28.632Z,61.21
2023-03-10T00:08:39.604Z,61.21
2023-03-10T00:08:50.419Z,61.21
2023-03-10T00:09:01.441Z,61.11
2023-03-10T00:09:12.432Z,61.11
2023-03-10T00:09:23.200Z,61.11
2023-03-10T00:09:34.241Z,61.11
2023-03-10T00:09:45.231Z,61.11
2023-03-10T00:09:55.978Z,61.11
2023-03-10T00:10:07.035Z,61.11
2023-03-10T00:10:17.995Z,61.11
2023-03-10T00:10:28.758Z,61.11
2023-03-10T00:10:39.804Z,61.11
2023-03-10T00:10:50.844Z,61.00
2023-03-10T00:11:01.596Z,61.00
2023-03-10T00:11:12.642Z,61.00
2023-03-10T00:11:23.610Z,61.00
2023-03-10T00:11:34.391Z,60.91
2023-03-10T00:11:45.440Z,60.91
2023-03-10T00:11:56.427Z,60.91
2023-03-10T00:12:07.240Z,60.91
2023-03-10T00:12:18.269Z,60.91
2023-03-10T00:12:29.236Z,60.91
2023-03-10T00:12:40.018Z,60.91
2023-03-10T00:12:51.060Z,60.91
2023-03-10T00:13:02.030Z,60.91
2023-03-10T00:13:12.818Z,60.91
2023-03-10T00:13:23.862Z,60.91
2023-03-10T00:13:34.835Z,60.91
2023-03-10T00:13:45.601Z,60.91
2023-03-10T00:13:56.649Z,60.91
2023-03-10T00:14:07.610Z,60.91
2023-03-10T00:14:18.473Z,60.91
2023-03-10T00:14:28.922Z,60.91
2023-03-10T00:14:39.898Z,60.91
2023-03-10T00:14:50.683Z,60.91
2023-03-10T00:15:01.715Z,60.91
2023-03-10T00:15:12.675Z,60.80
2023-03-10T00:15:23.525Z,60.80
2023-03-10T00:15:34.543Z,60.80
2023-03-10T00:15:45.546Z,60.80
2023-03-10T00:15:56.392Z,60.80
2023-03-10T00:16:06.933Z,60.70
2023-03-10T00:16:17.953Z,60.80
2023-03-10T00:16:28.702Z,60.80
2023-03-10T00:16:39.804Z,60.80
2023-03-10T00:16:50.781Z,60.80
2023-03-10T00:17:01.538Z,60.70
2023-03-10T00:17:12.582Z,60.70
2023-03-10T00:17:23.575Z,60.60
2023-03-10T00:17:34.339Z,60.60
2023-03-10T00:17:45.386Z,60.60
2023-03-10T00:17:56.405Z,60.60
2023-03-10T00:18:07.150Z,60.70
2023-03-10T00:18:18.200Z,60.70
2023-03-10T00:18:29.167Z,60.70
2023-03-10T00:18:39.930Z,60.70
2023-03-10T00:18:50.980Z,60.70
2023-03-10T00:19:02.044Z,60.70
2023-03-10T00:19:12.787Z,60.80
2023-03-10T00:19:23.832Z,60.70
2023-03-10T00:19:34.810Z,60.70
2023-03-10T00:19:45.565Z,60.70
2023-03-10T00:19:56.622Z,60.70
2023-03-10T00:20:07.608Z,60.80
2023-03-10T00:20:18.356Z,60.80
2023-03-10T00:20:29.405Z,60.80
2023-03-10T00:20:40.474Z,60.80
2023-03-10T00:20:51.253Z,60.80
2023-03-10T00:21:02.297Z,60.80
2023-03-10T00:21:13.265Z,60.80
2023-03-10T00:21:24.061Z,60.80
2023-03-10T00:21:35.072Z,60.70
2023-03-10T00:21:46.055Z,60.60
2023-03-10T00:21:56.823Z,60.60
2023-03-10T00:22:07.869Z,60.60
2023-03-10T00:22:18.842Z,60.60
2023-03-10T00:22:29.632Z,60.60
2023-03-10T00:22:40.666Z,60.49
2023-03-10T00:22:51.636Z,60.49
2023-03-10T00:23:02.405Z,60.49
2023-03-10T00:23:13.445Z,60.49
2023-03-10T00:23:24.413Z,60.49
2023-03-10T00:23:37.461Z,60.49
2023-03-10T00:23:45.879Z,60.49
2023-03-10T00:23:56.853Z,60.39
2023-03-10T00:24:07.611Z,60.29
2023-03-10T00:24:18.673Z,60.19
2023-03-10T00:24:29.633Z,60.08
2023-03-10T00:24:40.405Z,60.08
2023-03-10T00:24:51.453Z,60.08
2023-03-10T00:25:02.420Z,60.08
2023-03-10T00:25:13.186Z,60.08
2023-03-10T00:25:24.251Z,60.19
2023-03-10T00:25:35.209Z,60.08
2023-03-10T00:25:45.990Z,60.08
2023-03-10T00:25:57.049Z,59.98
2023-03-10T00:26:08.019Z,59.98
2023-03-10T00:26:18.837Z,59.98
2023-03-10T00:26:29.845Z,59.88
2023-03-10T00:26:40.833Z,59.88
2023-03-10T00:26:51.580Z,59.77
2023-03-10T00:27:02.639Z,59.77
2023-03-10T00:27:13.622Z,59.77
2023-03-10T00:27:24.383Z,59.77
2023-03-10T00:27:35.477Z,59.88
2023-03-10T00:27:46.431Z,59.88
2023-03-10T00:27:57.190Z,59.88
2023-03-10T00:28:08.240Z,59.88
2023-03-10T00:28:19.193Z,59.88
2023-03-10T00:28:29.962Z,59.88
2023-03-10T00:28:41.053Z,59.88
2023-03-10T00:28:52.005Z,59.88
2023-03-10T00:29:02.765Z,59.88
2023-03-10T00:29:13.810Z,59.77
2023-03-10T00:29:24.783Z,59.67
2023-03-10T00:29:35.547Z,59.67
2023-03-10T00:29:46.666Z,59.57
2023-03-10T00:29:57.629Z,59.57
2023-03-10T00:30:08.349Z,59.57
2023-03-10T00:30:19.396Z,59.57
2023-03-10T00:30:32.949Z,59.67
2023-03-10T00:30:41.383Z,59.77
2023-03-10T00:30:52.501Z,59.77
2023-03-10T00:31:03.584Z,59.75
2023-03-10T00:31:14.578Z,59.67
2023-03-10T00:31:25.272Z,59.57
2023-03-10T00:31:35.751Z,59.57
2023-03-10T00:31:46.519Z,59.57
2023-03-10T00:31:57.567Z,59.64
2023-03-10T00:32:08.678Z,59.57
2023-03-10T00:32:19.441Z,59.57
2023-03-10T00:32:30.517Z,59.47
2023-03-10T00:32:41.477Z,59.47
2023-03-10T00:32:52.249Z,59.47
2023-03-10T00:33:03.291Z,59.36
2023-03-10T00:33:14.284Z,59.26
2023-03-10T00:33:25.027Z,59.26
2023-03-10T00:33:36.100Z,59.26
2023-03-10T00:33:47.069Z,59.23
2023-03-10T00:33:57.830Z,59.23
2023-03-10T00:34:08.877Z,59.23
2023-03-10T00:34:19.899Z,59.23
2023-03-10T00:34:30.668Z,59.23
2023-03-10T00:34:41.716Z,59.23
2023-03-10T00:34:52.676Z,59.23
2023-03-10T00:35:03.442Z,59.23
2023-03-10T00:35:14.485Z,59.13
2023-03-10T00:35:25.492Z,59.03
2023-03-10T00:35:36.263Z,58.92
2023-03-10T00:35:47.294Z,58.92
2023-03-10T00:35:58.336Z,58.92
2023-03-10T00:36:09.224Z,58.92
2023-03-10T00:36:19.704Z,58.92
2023-03-10T00:36:30.674Z,58.92
2023-03-10T00:36:41.451Z,58.83
2023-03-10T00:36:52.507Z,58.83
2023-03-10T00:37:03.471Z,58.83
2023-03-10T00:37:14.245Z,58.83
2023-03-10T00:37:25.306Z,58.72
2023-03-10T00:37:36.281Z,58.62
2023-03-10T00:37:47.068Z,58.62
2023-03-10T00:37:58.119Z,58.62
2023-03-10T00:38:09.117Z,58.62
2023-03-10T00:38:19.875Z,58.62
2023-03-10T00:38:30.921Z,58.62
2023-03-10T00:38:41.903Z,58.62
2023-03-10T00:38:52.654Z,58.62
2023-03-10T00:39:03.715Z,58.62
2023-03-10T00:39:14.670Z,58.62
2023-03-10T00:39:25.472Z,58.72
2023-03-10T00:39:36.504Z,58.72
2023-03-10T00:39:47.508Z,58.83
2023-03-10T00:39:58.256Z,58.72
2023-03-10T00:40:09.305Z,58.72
2023-03-10T00:40:20.280Z,58.62
2023-03-10T00:40:31.062Z,58.51
2023-03-10T00:40:42.099Z,58.51
2023-03-10T00:40:53.073Z,58.41
2023-03-10T00:41:03.850Z,58.41
2023-03-10T00:41:14.907Z,58.41
2023-03-10T00:41:25.865Z,58.41
2023-03-10T00:41:36.687Z,58.51
2023-03-10T00:41:47.700Z,58.51
2023-03-10T00:41:58.663Z,58.51
2023-03-10T00:42:09.426Z,58.51
2023-03-10T00:42:20.492Z,58.51
2023-03-10T00:42:31.459Z,58.51
2023-03-10T00:42:42.223Z,58.51
2023-03-10T00:42:53.322Z,58.51
2023-03-10T00:43:04.270Z,58.41
2023-03-10T00:43:15.039Z,58.41
2023-03-10T00:43:26.082Z,58.41
2023-03-10T00:43:37.053Z,58.41
2023-03-10T00:43:47.817Z,58.41
2023-03-10T00:43:58.895Z,58.41
2023-03-10T00:44:09.858Z,58.31
2023-03-10T00:44:20.614Z,58.31
2023-03-10T00:44:31.675Z,58.31
2023-03-10T00:44:42.624Z,58.31
2023-03-10T00:44:53.610Z,58.31
2023-03-10T00:45:04.672Z,58.31
2023-03-10T00:45:15.619Z,58.31
2023-03-10T00:45:26.381Z,58.21
2023-03-10T00:45:37.432Z,58.18
2023-03-10T00:45:48.405Z,58.21
2023-03-10T00:45:59.241Z,58.21
2023-03-10T00:46:10.338Z,58.21
2023-03-10T00:46:21.388Z,58.21
2023-03-10T00:46:32.167Z,58.21
2023-03-10T00:46:43.216Z,58.11
2023-03-10T00:46:54.171Z,58.11
2023-03-10T00:47:04.935Z,58.07
2023-03-10T00:47:15.994Z,58.07
2023-03-10T00:47:26.986Z,58.07
2023-03-10T00:47:37.741Z,58.07
2023-03-10T00:47:48.786Z,58.00
2023-03-10T00:47:59.846Z,58.00
2023-03-10T00:48:10.577Z,57.98
2023-03-10T00:48:21.658Z,57.98
2023-03-10T00:48:32.612Z,57.98
2023-03-10T00:48:43.359Z,57.98
2023-03-10T00:48:54.404Z,57.98
2023-03-10T00:49:05.384Z,57.98
2023-03-10T00:49:16.129Z,57.98
2023-03-10T00:49:27.176Z,57.98
2023-03-10T00:49:38.146Z,57.98
2023-03-10T00:49:48.928Z,57.98
2023-03-10T00:49:59.976Z,57.90
2023-03-10T00:50:10.969Z,57.98
2023-03-10T00:50:21.725Z,57.98
2023-03-10T00:50:32.794Z,57.98
2023-03-10T00:50:43.760Z,57.98
2023-03-10T00:50:54.521Z,57.98
2023-03-10T00:51:05.583Z,57.98
2023-03-10T00:51:16.545Z,57.98
2023-03-10T00:51:27.320Z,57.98
2023-03-10T00:51:38.370Z,57.98
2023-03-10T00:51:49.327Z,57.98
2023-03-10T00:52:00.104Z,57.98
2023-03-10T00:52:11.134Z,57.98
2023-03-10T00:52:22.103Z,58.07
2023-03-10T00:52:32.926Z,58.07
2023-03-10T00:52:43.939Z,57.98
2023-03-10T00:52:54.912Z,57.98
2023-03-10T00:53:05.678Z,57.98
2023-03-10T00:53:16.743Z,57.98
2023-03-10T00:53:27.797Z,57.98
2023-03-10T00:53:38.566Z,57.98
2023-03-10T00:53:49.667Z,57.87
2023-03-10T00:54:00.607Z,57.98
2023-03-10T00:54:11.372Z,57.98
2023-03-10T00:54:22.429Z,57.98
2023-03-10T00:54:33.418Z,58.07
2023-03-10T00:54:44.156Z,57.98
2023-03-10T00:54:55.207Z,57.98
2023-03-10T00:55:06.167Z,57.87
2023-03-10T00:55:16.948Z,57.87
2023-03-10T00:55:28.008Z,57.87
2023-03-10T00:55:38.966Z,57.87
2023-03-10T00:55:49.734Z,57.87
2023-03-10T00:56:00.790Z,57.87
2023-03-10T00:56:11.775Z,57.87
2023-03-10T00:56:22.802Z,57.87
2023-03-10T00:56:33.260Z,57.87
2023-03-10T00:56:44.232Z,57.87
2023-03-10T00:56:54.988Z,57.87
2023-03-10T00:57:06.035Z,57.87
2023-03-10T00:57:17.004Z,57.87
2023-03-10T00:57:27.766Z,57.87
2023-03-10T00:57:38.850Z,57.87
2023-03-10T00:57:49.794Z,57.77
2023-03-10T00:58:00.563Z,57.77
2023-03-10T00:58:11.618Z,57.87
2023-03-10T00:58:22.589Z,57.87
2023-03-10T00:58:33.355Z,57.87
2023-03-10T00:58:44.408Z,57.77
2023-03-10T00:58:55.386Z,57.77
2023-03-10T00:59:06.147Z,57.77
2023-03-10T00:59:17.206Z,57.77
2023-03-10T00:59:29.595Z,57.77
2023-03-10T00:59:50.105Z,57.87
2023-03-10T00:59:50.970Z,57.98
2023-03-10T01:00:00.802Z,57.98
2023-03-10T01:00:11.584Z,57.98
2023-03-10T01:00:22.668Z,57.98
2023-03-10T01:00:33.616Z,58.07
2023-03-10T01:00:44.369Z,58.07
2023-03-10T01:00:55.430Z,58.07
2023-03-10T01:01:06.399Z,58.18
2023-03-10T01:01:17.259Z,58.18
2023-03-10T01:01:27.736Z,58.18
2023-03-10T01:01:38.756Z,58.18
2023-03-10T01:01:49.568Z,58.07
2023-03-10T01:02:00.695Z,58.07
2023-03-10T01:02:11.269Z,58.07
2023-03-10T01:02:22.042Z,57.98
2023-03-10T01:02:33.083Z,57.98
2023-03-10T01:02:44.087Z,57.87
2023-03-10T01:02:54.841Z,57.77
2023-03-10T01:03:05.903Z,57.77
2023-03-10T01:03:16.901Z,57.67
2023-03-10T01:03:27.658Z,57.67
2023-03-10T01:03:38.702Z,57.56
2023-03-10T01:03:49.668Z,57.56
2023-03-10T01:04:00.570Z,57.46
2023-03-10T01:04:11.165Z,57.46
2023-03-10T01:04:22.134Z,57.46
2023-03-10T01:04:33.032Z,57.56
2023-03-10T01:04:43.567Z,57.56
2023-03-10T01:04:54.505Z,57.56
2023-03-10T01:05:05.273Z,57.67
2023-03-10T01:05:16.318Z,57.67
2023-03-10T01:05:27.284Z,57.67
2023-03-10T01:05:38.049Z,57.67
2023-03-10T01:05:49.099Z,57.67
2023-03-10T01:06:00.124Z,57.67
2023-03-10T01:06:10.866Z,57.67
2023-03-10T01:06:21.973Z,57.67
2023-03-10T01:06:32.900Z,57.67
2023-03-10T01:06:43.853Z,57.67
2023-03-10T01:06:54.899Z,57.67
2023-03-10T01:07:05.868Z,57.67
2023-03-10T01:07:16.639Z,57.87
2023-03-10T01:07:27.694Z,57.87
2023-03-10T01:07:38.677Z,57.98
2023-03-10T01:07:49.499Z,57.98
2023-03-10T01:08:00.015Z,57.87
2023-03-10T01:08:10.987Z,57.87
2023-03-10T01:08:21.788Z,57.77
2023-03-10T01:08:32.826Z,57.67
2023-03-10T01:08:43.797Z,57.67
2023-03-10T01:08:54.566Z,57.67
2023-03-10T01:09:05.612Z,57.56
2023-03-10T01:09:16.599Z,57.56
2023-03-10T01:09:27.404Z,57.56
2023-03-10T01:09:38.452Z,57.46
2023-03-10T01:09:49.454Z,57.46
2023-03-10T01:10:00.196Z,57.46
2023-03-10T01:10:11.249Z,57.56
2023-03-10T01:10:22.213Z,57.56
2023-03-10T01:10:32.991Z,57.56
2023-03-10T01:10:44.021Z,57.56
2023-03-10T01:10:55.013Z,57.67
2023-03-10T01:11:05.760Z,57.67
2023-03-10T01:11:16.799Z,57.67
2023-03-10T01:11:27.773Z,57.67
2023-03-10T01:11:38.541Z,57.56
2023-03-10T01:11:49.578Z,57.56
2023-03-10T01:12:00.564Z,57.56
2023-03-10T01:12:11.351Z,57.56
2023-03-10T01:12:22.385Z,57.56
2023-03-10T01:12:33.357Z,57.67
2023-03-10T01:12:44.127Z,57.67
2023-03-10T01:12:55.186Z,57.67
2023-03-10T01:13:06.146Z,57.67
2023-03-10T01:13:16.947Z,57.56
2023-03-10T01:13:28.000Z,57.56
2023-03-10T01:13:41.009Z,57.56
2023-03-10T01:13:50.093Z,57.56
2023-03-10T01:14:01.144Z,57.46
2023-03-10T01:14:12.113Z,57.46
2023-03-10T01:14:22.901Z,57.36
2023-03-10T01:14:33.944Z,57.36
2023-03-10T01:14:44.908Z,57.36
2023-03-10T01:14:55.683Z,57.26
2023-03-10T01:15:06.750Z,57.26
2023-03-10T01:15:17.737Z,57.26
2023-03-10T01:15:28.517Z,57.15
2023-03-10T01:15:39.532Z,57.15
2023-03-10T01:15:50.540Z,57.15
2023-03-10T01:16:01.445Z,57.26
2023-03-10T01:16:12.030Z,57.26
2023-03-10T01:16:23.079Z,57.15
2023-03-10T01:16:33.908Z,57.15
2023-03-10T01:16:44.908Z,57.15
2023-03-10T01:16:55.875Z,57.15
2023-03-10T01:17:06.650Z,57.15
2023-03-10T01:17:17.684Z,57.15
2023-03-10T01:17:28.653Z,57.15
2023-03-10T01:17:39.460Z,57.15
2023-03-10T01:17:50.516Z,57.26
2023-03-10T01:18:01.470Z,57.26
2023-03-10T01:18:12.234Z,57.26
2023-03-10T01:18:23.288Z,57.26
2023-03-10T01:18:34.257Z,57.26
2023-03-10T01:18:45.110Z,57.26
2023-03-10T01:18:55.606Z,57.15
2023-03-10T01:19:06.560Z,57.15
2023-03-10T01:19:17.345Z,57.15
2023-03-10T01:19:28.373Z,57.15
2023-03-10T01:19:39.346Z,57.15
2023-03-10T01:19:50.117Z,57.15
2023-03-10T01:20:01.168Z,57.05
2023-03-10T01:20:12.136Z,57.05
2023-03-10T01:20:23.031Z,57.05
2023-03-10T01:20:33.471Z,57.05
2023-03-10T01:20:44.454Z,57.05
2023-03-10T01:20:55.207Z,57.15
2023-03-10T01:21:06.248Z,57.15
2023-03-10T01:21:17.288Z,57.15
2023-03-10T01:21:28.037Z,57.15
2023-03-10T01:21:39.108Z,57.15
2023-03-10T01:21:50.081Z,57.15
2023-03-10T01:22:00.835Z,57.15
2023-03-10T01:22:11.897Z,57.15
2023-03-10T01:22:22.886Z,57.15
2023-03-10T01:22:33.646Z,57.15
2023-03-10T01:22:44.713Z,57.15
2023-03-10T01:22:55.672Z,57.15
2023-03-10T01:23:06.524Z,57.26
2023-03-10T01:23:17.536Z,57.26
2023-03-10T01:23:28.493Z,57.26
2023-03-10T01:23:39.341Z,57.26
2023-03-10T01:23:49.820Z,57.26
2023-03-10T01:24:00.814Z,57.26
2023-03-10T01:24:11.564Z,57.26
2023-03-10T01:24:22.627Z,57.26
2023-03-10T01:24:33.605Z,57.26
2023-03-10T01:24:44.353Z,57.26
2023-03-10T01:24:55.402Z,57.26
2023-03-10T01:25:06.379Z,57.26
2023-03-10T01:25:17.163Z,57.26
2023-03-10T01:25:28.220Z,57.26
2023-03-10T01:25:39.184Z,57.26
2023-03-10T01:25:49.954Z,57.26
2023-03-10T01:26:00.996Z,57.26
2023-03-10T01:26:11.962Z,57.36
2023-03-10T01:26:22.732Z,57.36
2023-03-10T01:26:33.778Z,57.36
2023-03-10T01:26:44.803Z,57.36
2023-03-10T01:26:55.535Z,57.36
2023-03-10T01:27:06.570Z,57.36
2023-03-10T01:27:17.537Z,57.46
2023-03-10T01:27:28.297Z,57.46
2023-03-10T01:27:39.359Z,57.36
2023-03-10T01:27:50.349Z,57.46
2023-03-10T01:28:01.125Z,57.36
2023-03-10T01:28:12.163Z,57.39
2023-03-10T01:28:23.134Z,57.36
2023-03-10T01:28:33.892Z,57.36
2023-03-10T01:28:44.967Z,57.46
2023-03-10T01:28:55.942Z,57.46
2023-03-10T01:29:06.704Z,57.56
2023-03-10T01:29:17.821Z,57.56
2023-03-10T01:29:28.727Z,57.56
2023-03-10T01:29:39.490Z,57.56
2023-03-10T01:29:50.566Z,57.56
2023-03-10T01:30:01.541Z,57.59
2023-03-10T01:30:12.281Z,57.56
2023-03-10T01:30:23.390Z,57.59
2023-03-10T01:30:34.316Z,57.59
2023-03-10T01:30:45.080Z,57.59
2023-03-10T01:30:56.171Z,57.59
2023-03-10T01:31:07.227Z,57.70
2023-03-10T01:31:18.129Z,57.70
2023-03-10T01:31:28.672Z,57.70
2023-03-10T01:31:39.701Z,57.70
2023-03-10T01:31:50.557Z,57.79
2023-03-10T01:32:01.020Z,57.70
2023-03-10T01:32:12.032Z,57.70
2023-03-10T01:32:22.788Z,57.70
2023-03-10T01:32:33.854Z,57.70
2023-03-10T01:32:44.852Z,57.70
2023-03-10T01:32:55.594Z,57.79
2023-03-10T01:33:06.629Z,57.70
2023-03-10T01:33:17.628Z,57.79
2023-03-10T01:33:28.385Z,57.79
2023-03-10T01:33:39.435Z,57.79
2023-03-10T01:33:50.415Z,57.79
2023-03-10T01:34:01.185Z,57.90
2023-03-10T01:34:12.242Z,57.90
2023-03-10T01:34:23.194Z,57.90
2023-03-10T01:34:33.962Z,57.90
2023-03-10T01:34:45.030Z,57.90
2023-03-10T01:34:56.001Z,57.90
2023-03-10T01:35:06.776Z,57.90
2023-03-10T01:35:17.836Z,57.79
2023-03-10T01:35:28.794Z,57.79
2023-03-10T01:35:39.593Z,57.79
2023-03-10T01:35:50.661Z,57.79
2023-03-10T01:36:01.683Z,57.79
2023-03-10T01:36:12.445Z,57.90
2023-03-10T01:36:23.541Z,57.79
2023-03-10T01:36:34.457Z,57.79
2023-03-10T01:36:45.229Z,57.79
2023-03-10T01:36:56.275Z,57.79
2023-03-10T01:37:07.275Z,57.79
2023-03-10T01:37:18.000Z,57.79
2023-03-10T01:37:29.083Z,57.79
2023-03-10T01:37:40.436Z,57.79
2023-03-10T01:37:51.184Z,57.79
2023-03-10T01:38:02.232Z,57.70
2023-03-10T01:38:13.213Z,57.70
2023-03-10T01:38:23.997Z,57.70
2023-03-10T01:38:35.047Z,57.70
2023-03-10T01:38:46.023Z,57.70
2023-03-10T01:38:56.799Z,57.70
2023-03-10T01:39:07.847Z,57.79
2023-03-10T01:39:18.812Z,57.79
2023-03-10T01:39:29.575Z,57.79
2023-03-10T01:39:40.622Z,57.90
2023-03-10T01:39:51.587Z,57.90
2023-03-10T01:40:02.352Z,57.90
2023-03-10T01:40:13.418Z,57.90
2023-03-10T01:40:24.400Z,57.90
2023-03-10T01:40:35.199Z,57.90
2023-03-10T01:40:46.233Z,57.90
2023-03-10T01:40:57.202Z,58.00
2023-03-10T01:41:07.965Z,58.00
2023-03-10T01:41:19.029Z,58.03
2023-03-10T01:41:29.999Z,58.00
2023-03-10T01:41:40.785Z,58.00
2023-03-10T01:41:51.857Z,58.00
2023-03-10T01:42:02.909Z,57.90
2023-03-10T01:42:13.682Z,57.90
2023-03-10T01:42:24.745Z,57.90
2023-03-10T01:42:35.695Z,57.90
2023-03-10T01:42:46.478Z,58.00
2023-03-10T01:42:57.526Z,58.00
2023-03-10T01:43:08.513Z,58.00
2023-03-10T01:43:19.294Z,58.00
2023-03-10T01:43:30.354Z,58.00
2023-03-10T01:43:41.329Z,58.03
2023-03-10T01:43:52.093Z,58.03
2023-03-10T01:44:03.155Z,58.00
2023-03-10T01:44:14.116Z,58.00
2023-03-10T01:44:24.932Z,58.00
2023-03-10T01:44:35.950Z,57.93
2023-03-10T01:44:46.914Z,57.90
2023-03-10T01:44:57.684Z,57.90
2023-03-10T01:45:08.724Z,57.93
2023-03-10T01:45:19.690Z,57.90
2023-03-10T01:45:30.564Z,57.93
2023-03-10T01:45:41.007Z,57.93
2023-03-10T01:45:51.984Z,57.93
2023-03-10T01:46:02.760Z,57.93
2023-03-10T01:46:13.836Z,57.93
2023-03-10T01:46:24.817Z,58.03
2023-03-10T01:46:35.708Z,58.00
2023-03-10T01:46:46.299Z,58.03
2023-03-10T01:46:57.293Z,57.90
2023-03-10T01:47:08.119Z,57.93
2023-03-10T01:47:19.178Z,57.90
2023-03-10T01:47:30.141Z,57.93
2023-03-10T01:47:40.918Z,58.03
2023-03-10T01:47:51.949Z,57.90
2023-03-10T01:48:02.924Z,58.00
2023-03-10T01:48:13.688Z,58.03
2023-03-10T01:48:24.731Z,57.93
2023-03-10T01:48:35.715Z,57.93
2023-03-10T01:48:46.506Z,57.93
2023-03-10T01:48:57.569Z,57.93
2023-03-10T01:49:08.575Z,58.03
2023-03-10T01:49:19.314Z,57.93
2023-03-10T01:49:30.354Z,57.90
2023-03-10T01:49:41.333Z,57.93
2023-03-10T01:49:52.102Z,57.93
2023-03-10T01:50:03.128Z,57.93
2023-03-10T01:50:14.102Z,57.93
2023-03-10T01:50:24.861Z,57.93
2023-03-10T01:50:35.918Z,57.93
2023-03-10T01:50:46.871Z,57.93
2023-03-10T01:50:57.669Z,57.93
2023-03-10T01:51:08.698Z,57.93
2023-03-10T01:51:19.663Z,57.93
2023-03-10T01:51:30.425Z,57.93
2023-03-10T01:51:41.465Z,57.93
2023-03-10T01:51:52.437Z,57.93
2023-03-10T01:52:03.225Z,57.93
2023-03-10T01:52:14.296Z,57.93
2023-03-10T01:52:25.232Z,57.93
2023-03-10T01:52:36.000Z,58.03
2023-03-10T01:52:47.062Z,58.03
2023-03-10T01:52:58.093Z,58.03
2023-03-10T01:53:08.844Z,58.03
2023-03-10T01:53:19.911Z,58.03
2023-03-10T01:53:30.869Z,58.03
2023-03-10T01:53:41.667Z,58.03
2023-03-10T01:53:52.722Z,58.03
2023-03-10T01:54:03.677Z,58.03
2023-03-10T01:54:14.457Z,58.03
2023-03-10T01:54:25.498Z,58.03
2023-03-10T01:54:36.513Z,58.03
2023-03-10T01:54:47.252Z,58.13
2023-03-10T01:54:58.306Z,58.13
2023-03-10T01:55:09.264Z,58.13
2023-03-10T01:55:20.032Z,58.23
2023-03-10T01:55:31.082Z,58.23
2023-03-10T01:55:42.073Z,58.23
2023-03-10T01:55:52.854Z,58.23
2023-03-10T01:56:03.894Z,58.34
2023-03-10T01:56:14.862Z,58.34
2023-03-10T01:56:25.628Z,58.34
2023-03-10T01:56:36.682Z,58.34
2023-03-10T01:56:47.680Z,58.34
2023-03-10T01:56:58.433Z,58.34
2023-03-10T01:57:09.469Z,58.34
2023-03-10T01:57:20.472Z,58.44
2023-03-10T01:57:31.207Z,58.44
2023-03-10T01:57:42.301Z,58.34
2023-03-10T01:57:53.237Z,58.44
2023-03-10T01:58:04.000Z,58.44
2023-03-10T01:58:15.089Z,58.44
2023-03-10T01:58:26.120Z,58.44
2023-03-10T01:58:36.859Z,58.44
2023-03-10T01:58:47.928Z,58.44
2023-03-10T01:58:58.895Z,58.44
2023-03-10T01:59:09.670Z,58.44
2023-03-10T01:59:20.729Z,58.44
2023-03-10T01:59:31.692Z,58.44
2023-03-10T01:59:42.520Z,58.44
2023-03-10T01:59:53.025Z,58.44
2023-03-10T02:00:03.990Z,58.44
2023-03-10T02:00:14.775Z,58.44
2023-03-10T02:00:26.014Z,58.44
2023-03-10T02:00:36.576Z,58.44
2023-03-10T02:00:47.398Z,58.34
2023-03-10T02:00:57.980Z,58.34
2023-03-10T02:01:08.546Z,58.34
2023-03-10T02:01:19.340Z,58.34
2023-03-10T02:01:29.838Z,58.34
2023-03-10T02:01:40.812Z,58.44
2023-03-10T02:01:51.616Z,58.44
2023-03-10T02:02:02.241Z,58.44
2023-03-10T02:02:13.310Z,58.44
2023-03-10T02:02:24.144Z,58.57
2023-03-10T02:02:34.677Z,58.57
2023-03-10T02:02:45.619Z,58.64
2023-03-10T02:02:56.387Z,58.64
2023-03-10T02:03:07.465Z,58.64
2023-03-10T02:03:18.420Z,58.67
2023-03-10T02:03:29.222Z,58.67
2023-03-10T02:03:40.260Z,58.64
2023-03-10T02:03:51.220Z,58.64
2023-03-10T02:04:01.983Z,58.64
2023-03-10T02:04:13.033Z,58.64
2023-03-10T02:04:24.024Z,58.54
2023-03-10T02:04:34.847Z,58.64
2023-03-10T02:04:45.860Z,58.64
2023-03-10T02:04:56.829Z,58.57
2023-03-10T02:05:07.609Z,58.54
2023-03-10T02:05:18.674Z,58.57
2023-03-10T02:05:29.642Z,58.54
2023-03-10T02:05:40.415Z,58.57
2023-03-10T02:05:51.532Z,58.54
2023-03-10T02:06:02.464Z,58.57
2023-03-10T02:06:13.237Z,58.64
2023-03-10T02:06:24.275Z,58.64
2023-03-10T02:06:35.252Z,58.64
2023-03-10T02:06:46.010Z,58.67
2023-03-10T02:06:57.068Z,58.64
2023-03-10T02:07:08.058Z,58.64
2023-03-10T02:07:18.820Z,58.64
2023-03-10T02:07:29.865Z,58.67
2023-03-10T02:07:41.465Z,58.75
2023-03-10T02:07:51.628Z,58.75
2023-03-10T02:08:02.678Z,58.75
2023-03-10T02:08:13.634Z,58.87
2023-03-10T02:08:24.424Z,58.95
2023-03-10T02:08:35.517Z,58.98
2023-03-10T02:08:46.444Z,58.95
2023-03-10T02:08:57.214Z,58.95
2023-03-10T02:09:08.297Z,58.87
2023-03-10T02:09:19.229Z,58.85
2023-03-10T02:09:30.006Z,58.78
2023-03-10T02:09:41.090Z,58.78
2023-03-10T02:09:52.047Z,58.78
2023-03-10T02:10:02.836Z,58.85
2023-03-10T02:10:13.886Z,58.87
2023-03-10T02:10:24.834Z,58.87
2023-03-10T02:10:35.607Z,58.85
2023-03-10T02:10:46.766Z,58.95
2023-03-10T02:10:57.198Z,58.87
2023-03-10T02:11:07.971Z,58.87
2023-03-10T02:11:19.029Z,58.85
2023-03-10T02:11:30.000Z,58.78
2023-03-10T02:11:40.761Z,58.78
2023-03-10T02:11:52.754Z,58.67
2023-03-10T02:12:02.628Z,58.67
2023-03-10T02:12:13.400Z,58.67
2023-03-10T02:12:24.445Z,58.67
2023-03-10T02:12:35.426Z,58.64
2023-03-10T02:12:46.187Z,58.64
2023-03-10T02:12:57.315Z,58.57
2023-03-10T02:13:08.240Z,58.57
2023-03-10T02:13:19.012Z,58.47
2023-03-10T02:13:30.049Z,58.47
2023-03-10T02:13:41.066Z,58.47
2023-03-10T02:13:51.812Z,58.36
2023-03-10T02:14:02.907Z,58.36
2023-03-10T02:14:13.921Z,58.36
2023-03-10T02:14:24.685Z,58.36
2023-03-10T02:14:35.759Z,58.36
2023-03-10T02:14:46.809Z,58.47
2023-03-10T02:14:57.589Z,58.47
2023-03-10T02:15:08.630Z,58.57
2023-03-10T02:15:19.577Z,58.57
2023-03-10T02:15:30.351Z,58.57
2023-03-10T02:15:41.419Z,58.67
2023-03-10T02:15:52.388Z,58.67
2023-03-10T02:16:03.237Z,58.67
2023-03-10T02:16:13.816Z,58.67
2023-03-10T02:16:24.391Z,58.67
2023-03-10T02:16:35.183Z,58.67
2023-03-10T02:16:45.716Z,58.67
2023-03-10T02:16:56.659Z,58.67
2023-03-10T02:17:07.534Z,58.67
2023-03-10T02:17:17.999Z,58.78
2023-03-10T02:17:29.062Z,58.78
2023-03-10T02:17:39.887Z,58.67
2023-03-10T02:17:50.939Z,58.78
2023-03-10T02:18:01.970Z,58.78
2023-03-10T02:18:12.788Z,58.67
2023-03-10T02:18:23.818Z,58.67
2023-03-10T02:18:34.788Z,58.67
2023-03-10T02:18:45.546Z,58.67
2023-03-10T02:18:56.589Z,58.67
2023-03-10T02:19:07.580Z,58.78
2023-03-10T02:19:18.347Z,58.78
2023-03-10T02:19:29.386Z,58.78
2023-03-10T02:19:40.422Z,58.78
2023-03-10T02:19:51.151Z,58.87
2023-03-10T02:20:02.198Z,58.87
2023-03-10T02:20:13.178Z,58.98
2023-03-10T02:20:23.925Z,58.98
2023-03-10T02:20:34.979Z,58.98